Flight Track Log - Related Links

Times and Time Zones

All times are in EDT time to prevent confusion due to time zone crossing. See the UAL1444 flight status page for this flight to view local times or setup timezone preferences in your user account.

Time Position Orientation Groundspeed Altitude Reporting Facility
EDT Latitude Longitude Course Direction KTS MPH feet Rate Location/Type
Fri 09:00:06 PM 41.9950 -87.9390 319° Northwest 174 200 1,300  Level FlightAware
Fri 09:00:31 PM 42.0120 -87.9550 325° Northwest 186 214 2,200 2,291 Climbing FlightAware
Fri 09:01:01 PM 42.0350 -87.9770 325° Northwest 202 232 3,400 2,133 Climbing FlightAware
Fri 09:01:16 PM 42.0460 -87.9870 326° Northwest 215 247 3,800 1,500 Climbing FlightAware
Fri 09:01:41 PM 42.0680 -88.0100 322° Northwest 251 289 4,400 2,100 Climbing FlightAware
Fri 09:01:56 PM 42.0830 -88.0250 323° Northwest 258 297 5,200 2,933 Climbing FlightAware
Fri 09:02:26 PM 42.1060 -88.0600 312° West 271 312 6,600 2,850 Climbing FlightAware
Fri 09:02:36 PM 42.1090 -88.0770 283° West 277 319 7,100 3,600 Climbing FlightAware
Fri 09:02:51 PM 42.1090 -88.1040 270° West 272 313 8,100 3,200 Climbing FlightAware
Fri 09:03:21 PM 42.1050 -88.1560 264° West 281 323 9,500 2,657 Climbing FlightAware
Fri 09:04:01 PM 42.0910 -88.2250 255° West 302 348 11,200 1,906 Climbing FlightAware
Fri 09:04:46 PM 42.0520 -88.3050 237° Southwest 354 407 12,200 1,765 Climbing FlightAware
Fri 09:05:26 PM 42.0140 -88.3790 235° Southwest 369 425 13,700 2,541 Climbing FlightAware
Fri 09:06:11 PM 41.9700 -88.4630 235° Southwest 369 425 15,800 2,753 Climbing FlightAware
Fri 09:06:51 PM 41.9360 -88.5410 240° Southwest 364 419 17,600 2,250 Climbing FlightAware
Fri 09:07:31 PM 41.9180 -88.6310 255° West 379 436 18,800 1,835 Climbing FlightAware
Fri 09:08:16 PM 41.9000 -88.7360 257° West 388 447 20,200 1,906 Climbing FlightAware
Fri 09:08:56 PM 41.8840 -88.8250 256° West 392 451 21,500 1,835 Climbing FlightAware
Fri 09:09:41 PM 41.8660 -88.9360 258° West 399 459 22,800 1,624 Climbing FlightAware
Fri 09:10:21 PM 41.8510 -89.0340 258° West 406 467 23,800 1,500 Climbing FlightAware
Fri 09:11:01 PM 41.8350 -89.1320 258° West 413 475 24,800 1,350 Climbing FlightAware
Fri 09:11:41 PM 41.8260 -89.2320 263° West 419 482 25,600 1,200 Climbing FlightAware
Fri 09:12:26 PM 41.8250 -89.3560 269° West 428 493 26,500 1,133 Climbing FlightAware
Fri 09:13:11 PM 41.8230 -89.4740 269° West 435 501 27,300 1,271 Climbing FlightAware
Fri 09:13:51 PM 41.8220 -89.5820 269° West 434 499 28,300 1,575 Climbing FlightAware
Fri 09:14:31 PM 41.8200 -89.6860 269° West 428 493 29,400 1,624 Climbing FlightAware
Fri 09:15:16 PM 41.8180 -89.8050 269° West 422 486 30,600 1,412 Climbing FlightAware
Fri 09:15:56 PM 41.8160 -89.9090 269° West 421 484 31,400 1,050 Climbing FlightAware
Fri 09:16:36 PM 41.8140 -90.0130 269° West 423 487 32,000 918 Climbing FlightAware
Fri 09:17:21 PM 41.8180 -90.1270 273° West 427 491 32,700 847 Climbing FlightAware
Fri 09:18:01 PM 41.8240 -90.2380 274° West 430 495 33,200 825 Climbing FlightAware
Fri 09:18:41 PM 41.8310 -90.3410 275° West 431 496 33,800 960 Climbing FlightAware
Fri 09:19:16 PM 41.8360 -90.4370 274° West 428 493 34,400 1,200 Climbing FlightAware
Fri 09:20:06 PM 41.8330 -90.5650 268° West 416 479 35,500 1,011 Climbing FlightAware
Fri 09:20:51 PM 41.8300 -90.6820 268° West 410 472 36,000 353 Climbing FlightAware
Fri 09:21:31 PM 41.8280 -90.7700 268° West 410 472 36,000  Level FlightAware
Fri 09:22:16 PM 41.8240 -90.8930 268° West 411 473 36,000  Level FlightAware
Fri 09:22:51 PM 41.8220 -90.9870 268° West 413 475 36,000  Level FlightAware
Fri 09:23:31 PM 41.8190 -91.0810 268° West 414 476 36,000  Level FlightAware
Fri 09:24:21 PM 41.8150 -91.2140 268° West 416 479 36,000  Level FlightAware
Fri 09:25:56 PM 41.8070 -91.4650 268° West 419 482 36,000  Level FlightAware
Fri 09:27:06 PM 41.8010 -91.6430 267° West 422 486 36,000  Level FlightAware
Fri 09:28:31 PM 41.7940 -91.8560 268° West 424 488 36,000  Level FlightAware
Fri 09:29:16 PM 41.7890 -91.9750 267° West 425 489 36,000  Level FlightAware
Fri 09:29:56 PM 41.7850 -92.0810 267° West 425 489 36,000  Level FlightAware
Fri 09:30:36 PM 41.7810 -92.1880 267° West 426 490 36,000  Level FlightAware
Fri 09:31:21 PM 41.7770 -92.3040 267° West 426 490 36,000  Level FlightAware
Fri 09:32:01 PM 41.7720 -92.4170 267° West 425 489 36,000  Level FlightAware
Fri 09:32:46 PM 41.7670 -92.5390 267° West 424 488 36,000  Level FlightAware
Fri 09:33:26 PM 41.7630 -92.6400 267° West 423 487 36,000  Level FlightAware
Fri 09:34:06 PM 41.7580 -92.7430 266° West 422 486 36,000  Level FlightAware
Fri 09:34:51 PM 41.7530 -92.8610 267° West 422 486 36,000  Level FlightAware
Fri 09:35:31 PM 41.7480 -92.9680 266° West 422 486 36,000  Level FlightAware
Fri 09:36:11 PM 41.7440 -93.0720 267° West 423 487 36,000  Level FlightAware
Fri 09:36:56 PM 41.7380 -93.1870 266° West 426 490 36,000  Level FlightAware
Fri 09:37:36 PM 41.7330 -93.2930 266° West 427 491 36,000  Level FlightAware
Fri 09:38:21 PM 41.7270 -93.4110 266° West 429 494 36,000  Level FlightAware
Fri 09:39:01 PM 41.7220 -93.5200 267° West 433 498 36,000  Level FlightAware
Fri 09:39:41 PM 41.7160 -93.6290 266° West 435 501 36,000  Level FlightAware
Fri 09:40:26 PM 41.7100 -93.7440 266° West 436 502 36,000  Level FlightAware
Fri 09:41:06 PM 41.7050 -93.8530 267° West 437 503 36,000  Level FlightAware
Fri 09:41:51 PM 41.6980 -93.9730 266° West 437 503 36,000  Level FlightAware
Fri 09:42:31 PM 41.6920 -94.0840 266° West 437 503 36,000  Level FlightAware
Fri 09:43:16 PM 41.6850 -94.2010 265° West 437 503 36,000  Level FlightAware
Fri 09:43:56 PM 41.6790 -94.3100 266° West 436 502 36,000  Level FlightAware
Fri 09:44:36 PM 41.6730 -94.4160 266° West 435 501 36,000  Level FlightAware
Fri 09:45:16 PM 41.6670 -94.5220 266° West 434 499 36,000  Level FlightAware
Fri 09:46:01 PM 41.6600 -94.6470 266° West 432 497 36,000  Level FlightAware
Fri 09:46:56 PM 41.6510 -94.7850 265° West 432 497 36,000  Level FlightAware
Fri 09:47:36 PM 41.6440 -94.8920 265° West 431 496 36,000  Level FlightAware
Fri 09:48:21 PM 41.6370 -94.9980 265° West 431 496 36,000  Level FlightAware
Fri 09:49:01 PM 41.6310 -95.0880 265° West 431 496 36,000  Level FlightAware
Fri 09:49:41 PM 41.6260 -95.1790 266° West 431 496 36,000  Level FlightAware
Fri 09:50:21 PM 41.6200 -95.2690 265° West 431 496 36,000  Level FlightAware
Fri 09:51:11 PM 41.6120 -95.3820 265° West 431 496 36,000  Level FlightAware
Fri 09:51:51 PM 41.6060 -95.4720 265° West 431 496 36,000  Level FlightAware
Fri 09:52:31 PM 41.6000 -95.5630 265° West 431 496 36,000  Level FlightAware
Fri 09:53:11 PM 41.5940 -95.6530 265° West 431 496 36,000  Level FlightAware
Fri 09:53:51 PM 41.5890 -95.7430 266° West 431 496 36,000  Level FlightAware
Fri 09:54:41 PM 41.5810 -95.8560 265° West 431 496 36,000  Level FlightAware
Fri 09:55:21 PM 41.5750 -95.9470 265° West 431 496 36,000  Level FlightAware
Fri 09:56:01 PM 41.5690 -96.0370 265° West 431 496 36,000  Level FlightAware
Fri 09:56:41 PM 41.5630 -96.1270 265° West 431 496 36,000  Level FlightAware
Fri 09:57:21 PM 41.5570 -96.2170 265° West 431 496 36,000  Level FlightAware
Fri 09:57:41 PM 41.5331 -96.5006 265° West 442 509 36,000  Level Minneapolis Center
Fri 09:58:43 PM 41.5203 -96.6628 264° West 443 510 36,000  Level Minneapolis Center
Fri 09:59:44 PM 41.5067 -96.8253 264° West 443 510 36,000  Level Minneapolis Center
Fri 10:00:45 PM 41.4936 -96.9881 264° West 443 510 36,000  Level Minneapolis Center
Fri 10:01:47 PM 41.4811 -97.1508 264° West 443 510 36,000  Level Minneapolis Center
Fri 10:02:48 PM 41.4647 -97.3472 264° West 445 512 36,000  Level Minneapolis Center
Fri 10:03:49 PM 41.4511 -97.5103 264° West 444 511 36,000  Level Minneapolis Center
Fri 10:04:50 PM 41.4367 -97.6731 263° West 444 511 36,000  Level Minneapolis Center
Fri 10:05:52 PM 41.4228 -97.8358 264° West 444 511 36,000  Level Minneapolis Center
Fri 10:06:53 PM 41.4083 -97.9989 263° West 443 510 36,000  Level Minneapolis Center
Fri 10:07:54 PM 41.3931 -98.1664 263° West 444 511 36,000  Level Minneapolis Center
Fri 10:08:55 PM 41.3781 -98.3300 263° West 446 513 36,000  Level Minneapolis Center
Fri 10:09:57 PM 41.3633 -98.4892 263° West 446 513 36,000  Level Minneapolis Center
Fri 10:10:58 PM 41.3481 -98.6561 263° West 450 518 36,000  Level Minneapolis Center
Fri 10:11:59 PM 41.3333 -98.8186 263° West 448 516 36,000  Level Minneapolis Center
Fri 10:12:25 PM 41.3225 -98.9164 262° West 450 518 36,000  Level Denver Center
Fri 10:13:27 PM 41.3061 -99.0800 262° West 452 520 36,000  Level Denver Center
Fri 10:14:29 PM 41.2900 -99.2433 263° West 450 518 36,000  Level Denver Center
Fri 10:15:31 PM 41.2731 -99.4058 262° West 447 514 36,000  Level Denver Center
Fri 10:16:32 PM 41.2553 -99.5792 262° West 447 514 36,000  Level Denver Center
Fri 10:17:34 PM 41.2367 -99.7619 262° West 448 516 36,000  Level Denver Center
Fri 10:18:36 PM 41.2194 -99.9197 262° West 451 519 36,000  Level Denver Center
Fri 10:24:49 PM 41.1018 -100.9630 262° West 451 519 36,000  Level FlightAware
Fri 10:25:47 PM 41.0834 -101.1210 261° West 451 519 36,000  Level FlightAware
Fri 10:26:18 PM 41.0736 -101.2030 261° West 449 517 36,000  Level FlightAware
Fri 10:26:49 PM 41.0636 -101.2890 261° West 451 519 36,000  Level FlightAware
Fri 10:27:21 PM 41.0532 -101.3760 261° West 454 522 36,000  Level FlightAware
Fri 10:27:52 PM 41.0427 -101.4610 261° West 454 522 36,000  Level FlightAware
Fri 10:28:22 PM 41.0327 -101.5430 261° West 453 521 36,000  Level FlightAware
Fri 10:28:52 PM 41.0227 -101.6250 261° West 452 520 36,000  Level FlightAware
Fri 10:29:23 PM 41.0124 -101.7090 261° West 454 522 36,000  Level FlightAware
Fri 10:29:53 PM 41.0022 -101.7920 261° West 458 527 36,000  Level FlightAware
Fri 10:30:23 PM 40.9919 -101.8770 261° West 460 529 36,000  Level FlightAware
Fri 10:30:54 PM 40.9811 -101.9620 260° West 460 529 36,000  Level FlightAware
Fri 10:31:24 PM 40.9707 -102.0450 261° West 460 529 36,000  Level FlightAware
Fri 10:31:54 PM 40.9601 -102.1280 260° West 459 528 36,000  Level FlightAware
Fri 10:32:25 PM 40.9491 -102.2130 260° West 459 528 36,000  Level FlightAware
Fri 10:32:56 PM 40.9382 -102.2980 260° West 460 529 36,000  Level FlightAware
Fri 10:33:26 PM 40.9274 -102.3820 260° West 461 531 36,000  Level FlightAware
Fri 10:33:57 PM 40.9164 -102.4680 260° West 460 529 36,000  Level FlightAware
Fri 10:34:28 PM 40.9054 -102.5520 260° West 461 531 36,000  Level FlightAware
Fri 10:34:58 PM 40.8943 -102.6360 260° West 461 531 36,000  Level FlightAware
Fri 10:35:28 PM 40.8832 -102.7200 260° West 460 529 36,000  Level FlightAware
Fri 10:35:59 PM 40.8718 -102.8050 260° West 460 529 36,000  Level FlightAware
Fri 10:36:29 PM 40.8608 -102.8880 260° West 460 529 36,000  Level FlightAware
Fri 10:37:00 PM 40.8493 -102.9730 260° West 460 529 36,000  Level FlightAware
Fri 10:37:32 PM 40.8373 -103.0620 260° West 461 531 36,000  Level FlightAware
Fri 10:38:02 PM 40.8259 -103.1450 260° West 461 531 36,000  Level FlightAware
Fri 10:38:32 PM 40.8146 -103.2280 260° West 462 532 36,000  Level FlightAware
Fri 10:39:02 PM 40.8032 -103.3110 260° West 462 532 36,000  Level FlightAware
Fri 10:39:32 PM 40.7918 -103.3940 260° West 462 532 36,000  Level FlightAware
Fri 10:40:04 PM 40.7796 -103.4830 260° West 463 533 36,000  Level FlightAware
Fri 10:40:35 PM 40.7676 -103.5680 259° West 464 534 36,000  Level FlightAware
Fri 10:41:06 PM 40.7556 -103.6530 259° West 465 535 36,000  Level FlightAware
Fri 10:41:36 PM 40.7436 -103.7370 259° West 466 536 36,000  Level FlightAware
Fri 10:42:06 PM 40.7315 -103.8220 259° West 468 539 36,000  Level FlightAware
Fri 10:42:37 PM 40.7191 -103.9080 259° West 468 539 36,000  Level FlightAware
Fri 10:43:08 PM 40.7069 -103.9930 259° West 467 537 36,000  Level FlightAware
Fri 10:43:38 PM 40.6946 -104.0780 259° West 467 537 36,000  Level FlightAware
Fri 10:44:08 PM 40.6824 -104.1620 259° West 466 536 36,000  Level FlightAware
Fri 10:44:39 PM 40.6699 -104.2470 259° West 466 536 36,000  Level FlightAware
Fri 10:45:09 PM 40.6576 -104.3310 259° West 466 536 36,000  Level FlightAware
Fri 10:45:39 PM 40.6452 -104.4150 259° West 464 534 36,000  Level FlightAware
Fri 10:46:11 PM 40.6324 -104.5020 259° West 464 534 36,000  Level FlightAware
Fri 10:46:43 PM 40.6191 -104.5910 259° West 465 535 36,000  Level FlightAware
Fri 10:47:13 PM 40.6067 -104.6740 259° West 465 535 36,000  Level FlightAware
Fri 10:47:43 PM 40.5939 -104.7580 259° West 465 535 36,000  Level FlightAware
Fri 10:48:14 PM 40.5810 -104.8430 259° West 464 534 36,000  Level FlightAware
Fri 10:48:55 PM 40.5639 -104.9540 259° West 464 534 36,000  Level FlightAware
Fri 10:49:25 PM 40.5509 -105.0390 259° West 464 534 36,000  Level FlightAware
Fri 10:49:55 PM 40.5380 -105.1230 259° West 464 534 36,000  Level FlightAware
Fri 10:50:26 PM 40.5251 -105.2070 259° West 462 532 36,000  Level FlightAware
Fri 10:50:56 PM 40.5121 -105.2900 258° West 463 533 36,000  Level FlightAware
Fri 10:51:29 PM 40.4983 -105.3790 259° West 464 534 36,000  Level FlightAware
Fri 10:51:59 PM 40.4851 -105.4620 258° West 464 534 36,000  Level FlightAware
Fri 10:52:35 PM 40.4693 -105.5610 258° West 464 534 36,000  Level FlightAware
Fri 10:53:10 PM 40.4538 -105.6590 258° West 465 535 36,000  Level FlightAware
Fri 10:53:56 PM 40.4340 -105.7790 258° West 464 534 36,000  Level FlightAware
Fri 10:54:01 PM 40.4316 -105.7970 260° West 464 534 36,000  Level FlightAware
Fri 10:54:37 PM 40.4154 -105.8970 258° West 464 534 36,000  Level FlightAware
Fri 10:55:21 PM 40.3960 -106.0160 258° West 469 540 36,000  Level FlightAware
Fri 10:56:01 PM 40.3780 -106.1250 258° West 470 541 36,000  Level FlightAware
Fri 10:56:46 PM 40.3580 -106.2480 258° West 472 543 36,000  Level FlightAware
Fri 10:57:26 PM 40.3400 -106.3550 258° West 472 543 36,000  Level FlightAware
Fri 10:58:11 PM 40.3190 -106.4850 258° West 467 537 36,000  Level FlightAware
Fri 10:58:41 PM 40.3040 -106.5700 257° West 464 534 36,000  Level FlightAware
Fri 10:58:56 PM 40.2962 -106.6160 257° West 465 535 36,000  Level FlightAware
Fri 10:59:31 PM 40.2820 -106.6950 257° West 464 534 36,000  Level FlightAware
Fri 10:59:43 PM 40.2750 -106.7420 259° West 465 535 36,000  Level FlightAware
Fri 11:01:01 PM 40.2387 -106.9560 258° West 463 533 36,000  Level FlightAware
Fri 11:01:33 PM 40.2232 -107.0450 257° West 469 540 36,000  Level FlightAware
Fri 11:02:36 PM 40.1940 -107.2130 257° West 473 544 36,000  Level FlightAware
Fri 11:03:16 PM 40.1750 -107.3240 257° West 476 548 36,000  Level FlightAware
Fri 11:03:56 PM 40.1550 -107.4360 257° West 479 551 36,000  Level FlightAware
Fri 11:04:41 PM 40.1320 -107.5640 257° West 477 549 36,000  Level FlightAware
Fri 11:05:21 PM 40.1120 -107.6770 257° West 475 547 36,000  Level FlightAware
Fri 11:06:01 PM 40.0930 -107.7860 257° West 474 545 36,000  Level FlightAware
Fri 11:06:46 PM 40.0700 -107.9130 257° West 475 547 36,000  Level FlightAware
Fri 11:07:31 PM 40.0510 -108.0370 259° West 476 548 36,000  Level FlightAware
Fri 11:08:11 PM 40.0340 -108.1540 259° West 478 550 36,000  Level FlightAware
Fri 11:08:51 PM 40.0180 -108.2580 259° West 475 547 36,000  Level FlightAware
Fri 11:09:36 PM 40.0000 -108.3810 259° West 474 545 36,000  Level FlightAware
Fri 11:10:16 PM 39.9830 -108.4940 259° West 475 547 36,000  Level FlightAware
Fri 11:10:56 PM 39.9660 -108.6100 259° West 473 544 36,000  Level FlightAware
Fri 11:11:41 PM 39.9460 -108.7340 258° West 473 544 36,000  Level FlightAware
Fri 11:12:21 PM 39.9290 -108.8470 259° West 472 543 36,000  Level FlightAware
Fri 11:13:06 PM 39.9090 -108.9770 259° West 472 543 36,000  Level FlightAware
Fri 11:13:46 PM 39.8920 -109.0880 259° West 474 545 36,000  Level FlightAware
Fri 11:14:26 PM 39.8740 -109.1990 258° West 474 545 36,000  Level FlightAware
Fri 11:15:11 PM 39.8540 -109.3280 259° West 475 547 36,000  Level FlightAware
Fri 11:15:51 PM 39.8360 -109.4400 258° West 473 544 36,000  Level FlightAware
Fri 11:16:36 PM 39.8170 -109.5550 258° West 473 544 36,000  Level FlightAware
Fri 11:17:16 PM 39.7990 -109.6670 258° West 473 544 36,000  Level FlightAware
Fri 11:17:56 PM 39.7820 -109.7770 259° West 473 544 36,000  Level FlightAware
Fri 11:18:41 PM 39.7630 -109.8930 258° West 472 543 36,000  Level FlightAware
Fri 11:19:21 PM 39.7430 -110.0130 258° West 472 543 36,000  Level FlightAware
Fri 11:20:06 PM 39.7220 -110.1380 258° West 473 544 36,000  Level FlightAware
Fri 11:20:46 PM 39.7050 -110.2440 258° West 473 544 36,000  Level FlightAware
Fri 11:21:26 PM 39.6850 -110.3630 258° West 473 544 36,000  Level FlightAware
Fri 11:22:11 PM 39.6640 -110.4880 258° West 474 545 36,000  Level FlightAware
Fri 11:22:51 PM 39.6450 -110.5980 257° West 471 542 36,000  Level FlightAware
Fri 11:23:36 PM 39.6240 -110.7210 258° West 472 543 36,000  Level FlightAware
Fri 11:24:21 PM 39.6020 -110.8430 257° West 471 542 36,000  Level FlightAware
Fri 11:25:26 PM 39.5720 -111.0200 258° West 470 541 36,000  Level FlightAware
Fri 11:26:11 PM 39.5500 -111.1450 257° West 468 539 36,000  Level FlightAware
Fri 11:26:51 PM 39.5310 -111.2550 257° West 468 539 36,000  Level FlightAware
Fri 11:27:31 PM 39.5100 -111.3700 257° West 468 539 36,000  Level FlightAware
Fri 11:28:11 PM 39.4920 -111.4740 257° West 465 535 36,000  Level FlightAware
Fri 11:28:56 PM 39.4720 -111.5830 257° West 465 535 36,000  Level FlightAware
Fri 11:29:36 PM 39.4560 -111.6750 257° West 465 535 36,000  Level FlightAware
Fri 11:30:16 PM 39.4390 -111.7670 257° West 465 535 36,000  Level FlightAware
Fri 11:30:56 PM 39.4230 -111.8600 257° West 465 535 36,000  Level FlightAware
Fri 11:31:46 PM 39.4020 -111.9750 257° West 465 535 36,000  Level FlightAware
Fri 11:32:26 PM 39.3860 -112.0670 257° West 465 535 36,000  Level FlightAware
Fri 11:33:06 PM 39.3690 -112.1590 257° West 465 535 36,000  Level FlightAware
Fri 11:33:46 PM 39.3530 -112.2510 257° West 465 535 36,000  Level FlightAware
Fri 11:34:26 PM 39.3360 -112.3440 257° West 465 535 36,000  Level FlightAware
Fri 11:35:16 PM 39.3160 -112.4590 257° West 465 535 36,000  Level FlightAware
Fri 11:35:56 PM 39.2990 -112.5510 257° West 465 535 36,000  Level FlightAware
Fri 11:36:36 PM 39.2830 -112.6430 257° West 465 535 36,000  Level FlightAware
Fri 11:37:16 PM 39.2660 -112.7350 257° West 465 535 36,000  Level FlightAware
Fri 11:37:56 PM 39.2500 -112.8270 257° West 465 535 36,000 1,239 Level FlightAware
Fri 11:38:48 PM 39.1589 -113.1411 257° West 457 526 37,900 1,062 Climbing Salt Center
Fri 11:39:49 PM 39.1136 -113.3342 253° West 464 534 38,000 49 Climbing Salt Center
Fri 11:40:50 PM 39.0758 -113.4933 253° West 468 539 38,000  Level Salt Center
Fri 11:41:51 PM 39.0383 -113.6522 253° West 468 539 38,000  Level Salt Center
Fri 11:42:52 PM 39.0019 -113.8089 253° West 464 534 38,000  Level Salt Center
Fri 11:43:53 PM 38.9647 -113.9633 253° West 459 528 38,000  Level Salt Center
Fri 11:44:55 PM 38.9286 -114.1164 253° West 455 524 38,000  Level Salt Center
Fri 11:45:56 PM 38.8914 -114.2711 253° West 456 525 38,000  Level Salt Center
Fri 11:46:57 PM 38.8536 -114.4258 253° West 456 525 38,000  Level Salt Center
Fri 11:47:58 PM 38.8164 -114.5794 253° West 455 524 38,000  Level Salt Center
Fri 11:48:59 PM 38.7781 -114.7344 252° West 458 527 38,000  Level Salt Center
Fri 11:50:00 PM 38.7328 -114.9189 253° West 456 525 38,000  Level Salt Center
Fri 11:51:01 PM 38.6911 -115.0756 251° West 464 534 38,000  Level Salt Center
Fri 11:52:02 PM 38.6531 -115.2303 253° West 462 532 38,000  Level Salt Center
Fri 11:53:03 PM 38.6169 -115.3725 252° West 457 526 38,000  Level Salt Center
Fri 11:54:04 PM 38.5806 -115.5244 253° West 448 516 38,000  Level Salt Center
Fri 11:55:05 PM 38.5397 -115.6778 251° West 455 524 38,000  Level Salt Center
Fri 11:56:06 PM 38.5011 -115.8297 252° West 452 520 38,000  Level Salt Center
Fri 11:57:07 PM 38.4622 -115.9814 252° West 450 518 38,000  Level Salt Center
Fri 11:58:08 PM 38.4136 -116.1669 252° West 459 528 38,000  Level Salt Center
Fri 11:58:45 PM 38.3886 -116.2608 251° West 463 533 38,000  Level Oakland Center
Fri 11:59:09 PM 38.3731 -116.3228 252° West 464 534 38,000  Level Salt Center
Fri 11:59:46 PM 38.3475 -116.4158 251° West 463 533 38,000  Level Oakland Center
Sat 12:00:46 AM 38.3064 -116.5750 252° West 470 541 38,000  Level Oakland Center
Sat 12:01:47 AM 38.2642 -116.7325 251° West 471 542 38,000  Level Oakland Center
Sat 12:02:48 AM 38.2222 -116.8894 251° West 469 540 38,000  Level Oakland Center
Sat 12:03:13 AM 38.2056 -116.9522 251° West 469 540 38,000  Level Salt Center
Sat 12:04:15 AM 38.1642 -117.1083 251° West 467 537 38,000  Level Salt Center
Sat 12:04:50 AM 38.1356 -117.2081 250° West 473 544 38,000  Level Oakland Center
Sat 12:05:51 AM 38.0950 -117.3769 253° West 466 536 38,000  Level Oakland Center
Sat 12:06:52 AM 38.0578 -117.5347 253° West 465 535 38,000  Level Oakland Center
Sat 12:12:11 AM 37.9380 -118.3830 253° West 464 534 38,000  Level FlightAware
Sat 12:12:56 AM 37.9260 -118.4950 262° West 464 534 38,000  Level FlightAware
Sat 12:13:46 AM 37.9090 -118.6420 262° West 464 534 38,000 -57 Level FlightAware
Sat 12:14:41 AM 37.8930 -118.7850 262° West 463 533 37,900 -67 Descending FlightAware
Sat 12:15:16 AM 37.8820 -118.8720 261° West 463 533 37,900 -1,040 Level FlightAware
Sat 12:15:56 AM 37.8700 -118.9930 263° West 465 535 36,600 -1,267 Descending FlightAware
Sat 12:16:46 AM 37.8540 -119.1300 262° West 465 535 36,000 -400 Descending FlightAware
Sat 12:17:26 AM 37.8420 -119.2330 262° West 456 525 36,000  Level FlightAware
Sat 12:18:11 AM 37.8280 -119.3500 261° West 452 520 36,000  Level FlightAware
Sat 12:18:51 AM 37.8150 -119.4570 261° West 450 518 36,000 -141 Level FlightAware
Sat 12:19:36 AM 37.8020 -119.5720 262° West 448 516 35,800 -565 Descending FlightAware
Sat 12:20:16 AM 37.7890 -119.6790 261° West 450 518 35,200 -900 Descending FlightAware
Sat 12:20:56 AM 37.7780 -119.7730 262° West 452 520 34,600 -988 Descending FlightAware
Sat 12:21:41 AM 37.7620 -119.9000 261° West 461 531 33,800 -988 Descending FlightAware
Sat 12:22:21 AM 37.7490 -120.0060 261° West 463 533 33,200 -988 Descending FlightAware
Sat 12:23:06 AM 37.7340 -120.1240 261° West 466 536 32,400 -1,341 Descending FlightAware
Sat 12:23:46 AM 37.7210 -120.2320 261° West 463 533 31,300 -2,100 Descending FlightAware
Sat 12:24:26 AM 37.7080 -120.3390 261° West 453 521 29,600 -2,471 Descending FlightAware
Sat 12:25:11 AM 37.6930 -120.4550 261° West 441 507 27,800 -2,329 Descending FlightAware
Sat 12:25:51 AM 37.6800 -120.5550 261° West 431 496 26,300 -2,250 Descending FlightAware
Sat 12:26:31 AM 37.6670 -120.6540 261° West 424 488 24,800 -2,188 Descending FlightAware
Sat 12:27:16 AM 37.6540 -120.7590 261° West 415 478 23,200 -2,118 Descending FlightAware
Sat 12:27:56 AM 37.6410 -120.8530 260° West 405 466 21,800 -2,188 Descending FlightAware
Sat 12:28:41 AM 37.6270 -120.9590 261° West 396 456 20,100 -2,188 Descending FlightAware
Sat 12:29:21 AM 37.6170 -121.0490 262° West 386 444 18,700 -1,950 Descending FlightAware
Sat 12:30:01 AM 37.6070 -121.1350 262° West 375 432 17,500 -2,188 Descending FlightAware
Sat 12:30:46 AM 37.5960 -121.2360 262° West 376 433 15,600 -2,259 Descending FlightAware
Sat 12:31:26 AM 37.5860 -121.3210 262° West 367 422 14,300 -1,976 Descending FlightAware
Sat 12:32:11 AM 37.5750 -121.4140 262° West 358 412 12,800 -1,976 Descending FlightAware
Sat 12:32:51 AM 37.5660 -121.4980 262° West 352 405 11,500 -1,412 Descending FlightAware
Sat 12:33:36 AM 37.5550 -121.5810 261° West 329 379 10,800 -494 Descending FlightAware
Sat 12:34:16 AM 37.5380 -121.6530 253° West 304 350 10,800 -450 Level FlightAware
Sat 12:34:56 AM 37.5210 -121.7220 253° West 297 342 10,200 -857 Descending FlightAware
Sat 12:35:26 AM 37.5090 -121.7690 252° West 285 328 9,800 -1,100 Descending FlightAware
Sat 12:35:56 AM 37.4960 -121.8170 251° West 280 322 9,100 -1,309 Descending FlightAware
Sat 12:36:21 AM 37.4760 -121.8470 230° Southwest 279 321 8,600 -982 Descending FlightAware
Sat 12:36:51 AM 37.4550 -121.8830 234° Southwest 268 308 8,200 -667 Descending FlightAware
Sat 12:37:06 AM 37.4520 -121.9060 261° West 253 291 8,100 -600 Descending FlightAware
Sat 12:37:31 AM 37.4540 -121.9410 274° West 231 266 7,800 -750 Descending FlightAware
Sat 12:37:46 AM 37.4560 -121.9610 277° West 217 250 7,600 -1,200 Descending FlightAware
Sat 12:38:16 AM 37.4610 -121.9950 281° West 204 235 6,900 -1,527 Descending FlightAware
Sat 12:38:41 AM 37.4720 -122.0240 296° West 201 231 6,200 -1,527 Descending FlightAware
Sat 12:39:11 AM 37.4840 -122.0490 301° West 198 228 5,500 -1,636 Descending FlightAware
Sat 12:39:36 AM 37.4960 -122.0780 298° West 195 224 4,700 -1,636 Descending FlightAware
Sat 12:40:06 AM 37.5080 -122.1060 298° West 194 223 4,000 -1,015 Descending FlightAware
Sat 12:40:41 AM 37.5200 -122.1350 298° West 187 215 3,600 -982 Descending FlightAware
Sat 12:41:01 AM 37.5270 -122.1520 297° West 189 217 3,100 -1,080 Descending FlightAware
Sat 12:41:31 AM 37.5420 -122.1880 298° West 166 191 2,700 -651 Descending FlightAware
Sat 12:42:24 AM 37.5575 -122.2250 298° West 174 200 2,200 -632 Descending Oakland Center
Sat 12:43:25 AM 37.5747 -122.2664 298° West 149 171 1,500 -738 Descending Oakland Center
Sat 12:44:26 AM 37.5947 -122.3128 299° West 147 169 700 -689 Descending Oakland Center
Sat 12:45:27 AM 37.6150 -122.3608 298° West 147 169 100 -590 Descending Oakland Center
Sat 12:47:00 AM 37.6167 -122.3667 322° Northwest  Level FlightAware

Login

Don't have an account? Register now (free) for customized features, flight alerts, and more!